Time;durP1;ratioP1;P1;durP2;ratioP2;P2;SDS_P1;SDS_P2;PMS_P1;PMS_P2;Temp;Humidity;BMP_temperature;BMP_pressure;BME280_temperature;BME280_humidity;BME280_pressure;Samples;Min_cycle;Max_cycle;Signal;HPM_P1;HPM_P2
2022/04/05 00:01:35;;;;;;;6.20;3.93;;;;;;;8.57;56.51;99917.06;5084936;28;20209;-68
2022/04/05 00:04:12;;;;;;;5.83;3.73;;;;;;;8.44;57.00;99916.59;5084455;28;22000;-68
2022/04/05 00:06:40;;;;;;;6.30;3.57;;;;;;;8.67;56.34;99929.25;5083395;28;20267;-68
2022/04/05 00:09:08;;;;;;;4.90;3.60;;;;;;;8.45;57.27;99921.72;5087343;28;20214;-68
2022/04/05 00:11:35;;;;;;;4.93;3.33;;;;;;;8.56;57.00;99916.22;5094071;28;20229;-68
2022/04/05 00:14:03;;;;;;;7.27;3.77;;;;;;;8.80;56.32;99907.72;5086216;28;20209;-68
2022/04/05 00:16:32;;;;;;;9.60;5.20;;;;;;;8.75;56.42;99906.53;5083327;28;20215;-68
2022/04/05 00:19:00;;;;;;;6.37;4.07;;;;;;;8.21;58.69;99895.00;5077770;28;20211;-68
2022/04/05 00:21:27;;;;;;;5.37;3.60;;;;;;;8.39;58.44;99898.53;5083942;28;20232;-67
2022/04/05 00:23:55;;;;;;;6.73;3.43;;;;;;;8.14;58.99;99899.19;5082902;28;20201;-68
2022/04/05 00:26:23;;;;;;;6.00;3.50;;;;;;;8.43;58.58;99899.94;5085832;28;20297;-68
2022/04/05 00:28:51;;;;;;;10.87;4.00;;;;;;;8.41;58.75;99891.31;5087308;28;20224;-68
2022/04/05 00:31:19;;;;;;;7.27;4.50;;;;;;;8.60;58.06;99906.22;5082350;28;20231;-68
2022/04/05 00:33:48;;;;;;;5.50;3.73;;;;;;;8.57;58.04;99896.75;5083703;28;20538;-68
2022/04/05 00:36:15;;;;;;;7.60;4.10;;;;;;;8.45;58.76;99866.22;5081793;28;20223;-68
2022/04/05 00:38:43;;;;;;;7.23;4.20;;;;;;;8.22;59.37;99875.53;5094327;27;20244;-68
2022/04/05 00:41:11;;;;;;;7.17;3.67;;;;;;;8.42;59.11;99877.13;5103109;27;20261;-68
2022/04/05 00:43:39;;;;;;;8.20;3.80;;;;;;;8.55;58.78;99867.00;5105666;27;20213;-68
2022/04/05 00:46:07;;;;;;;5.60;3.53;;;;;;;8.50;59.19;99871.91;5102423;27;20233;-68
2022/04/05 00:48:47;;;;;;;10.60;4.33;;;;;;;8.41;59.57;99879.91;5102796;27;20212;-68
2022/04/05 00:51:16;;;;;;;12.90;3.80;;;;;;;8.32;60.26;99873.69;5102669;27;20592;-68
2022/04/05 00:53:47;;;;;;;6.80;4.63;;;;;;;8.38;59.93;99849.31;5101756;27;20201;-68
2022/04/05 00:56:16;;;;;;;7.50;3.83;;;;;;;8.44;59.90;99859.31;5102452;27;20205;-68
2022/04/05 00:58:47;;;;;;;6.17;3.50;;;;;;;8.14;60.87;99867.50;5101744;27;20319;-67
2022/04/05 01:01:18;;;;;;;6.63;4.10;;;;;;;8.18;60.65;99871.53;5104189;27;20745;-68
2022/04/05 01:03:49;;;;;;;8.17;3.30;;;;;;;8.21;61.23;99852.72;5102359;27;20564;-68
2022/04/05 01:06:20;;;;;;;6.30;3.70;;;;;;;8.20;61.42;99845.78;5104437;27;20556;-68
2022/04/05 01:08:50;;;;;;;5.30;3.40;;;;;;;8.35;61.42;99849.63;5099588;27;20586;-68
2022/04/05 01:11:18;;;;;;;6.00;3.63;;;;;;;8.27;61.78;99858.25;5102729;27;20213;-68
2022/04/05 01:13:46;;;;;;;6.07;3.50;;;;;;;8.31;62.11;99853.53;5104025;27;20209;-68
2022/04/05 01:16:14;;;;;;;4.57;3.03;;;;;;;8.46;61.49;99857.34;5099035;27;20205;-68
2022/04/05 01:18:42;;;;;;;6.60;3.37;;;;;;;8.10;62.80;99863.50;5105917;27;20209;-68
2022/04/05 01:21:10;;;;;;;7.30;3.30;;;;;;;8.30;62.13;99873.81;5103411;27;20204;-68
2022/04/05 01:24:03;;;;;;;5.47;3.10;;;;;;;8.14;62.89;99878.06;5104134;27;20673;-67
2022/04/05 01:26:38;;;;;;;8.27;3.20;;;;;;;8.27;62.49;99875.91;5104359;27;20213;-67
2022/04/05 01:29:06;;;;;;;4.57;3.07;;;;;;;8.47;61.92;99869.56;5095845;27;20392;-67
2022/04/05 01:31:37;;;;;;;4.73;2.47;;;;;;;8.48;62.09;99880.97;5104152;28;20233;-67
2022/04/05 01:34:05;;;;;;;5.60;3.00;;;;;;;8.58;61.68;99882.56;5100322;28;20298;-67
2022/04/05 01:36:33;;;;;;;4.53;2.93;;;;;;;8.46;62.38;99877.63;5100909;28;20239;-67
2022/04/05 01:39:02;;;;;;;5.13;2.93;;;;;;;8.32;63.54;99880.78;5102311;28;20233;-67
2022/04/05 01:41:30;;;;;;;4.37;2.80;;;;;;;8.40;63.51;99897.56;5101684;27;20205;-67
2022/04/05 01:43:58;;;;;;;6.30;2.90;;;;;;;8.34;63.93;99874.38;5102640;27;20782;-67
2022/04/05 01:46:25;;;;;;;4.63;2.80;;;;;;;8.29;64.45;99871.31;5098468;27;20200;-67
2022/04/05 01:48:53;;;;;;;4.57;2.60;;;;;;;8.13;65.45;99868.50;5100048;27;20571;-67
2022/04/05 01:51:21;;;;;;;6.43;2.90;;;;;;;8.34;64.70;99884.97;5103284;27;20711;-67
2022/04/05 01:53:49;;;;;;;5.87;2.97;;;;;;;8.43;64.32;99876.16;5102278;28;20212;-67
2022/04/05 01:56:18;;;;;;;6.27;3.10;;;;;;;8.19;65.38;99865.25;5103513;27;20697;-67
2022/04/05 01:58:45;;;;;;;5.63;3.17;;;;;;;8.22;65.43;99865.78;5100259;27;20205;-67
2022/04/05 02:01:13;;;;;;;4.80;2.90;;;;;;;8.28;65.18;99864.38;5102986;27;20240;-67
2022/04/05 02:03:49;;;;;;;6.23;3.13;;;;;;;8.19;66.09;99886.38;5100278;27;20613;-67
2022/04/05 02:06:18;;;;;;;6.03;2.67;;;;;;;8.35;65.49;99876.06;5102566;28;20217;-67
2022/04/05 02:08:46;;;;;;;6.10;2.83;;;;;;;8.42;65.22;99882.41;5101714;27;20214;-68
2022/04/05 02:11:14;;;;;;;6.40;2.73;;;;;;;8.23;65.98;99879.84;5099368;28;20224;-68
2022/04/05 02:13:43;;;;;;;4.70;2.97;;;;;;;8.24;66.34;99876.22;5099902;28;20204;-68
2022/04/05 02:16:10;;;;;;;5.80;2.90;;;;;;;8.34;66.00;99878.84;5101851;28;20199;-68
2022/04/05 02:18:38;;;;;;;5.30;2.60;;;;;;;8.52;65.36;99862.03;5104481;27;20624;-68
2022/04/05 02:21:06;;;;;;;5.00;3.30;;;;;;;8.19;66.94;99870.53;5103226;28;20220;-68
2022/04/05 02:23:37;;;;;;;4.60;2.53;;;;;;;8.19;67.06;99875.81;5103817;27;20215;-68
2022/04/05 02:26:15;;;;;;;4.57;2.67;;;;;;;8.03;68.03;99871.16;5102400;27;20554;-68
2022/04/05 02:28:44;;;;;;;4.57;2.77;;;;;;;8.21;67.89;99863.31;5103221;27;20585;-67
2022/04/05 02:31:12;;;;;;;5.23;2.47;;;;;;;8.52;66.35;99861.22;5102587;28;20205;-67
2022/04/05 02:33:40;;;;;;;4.80;2.60;;;;;;;8.31;67.51;99861.47;5102197;28;20233;-66
2022/04/05 02:36:08;;;;;;;5.60;2.67;;;;;;;8.30;67.52;99879.09;5100938;28;20253;-67
2022/04/05 02:38:36;;;;;;;3.60;2.60;;;;;;;8.60;66.31;99864.75;5100191;28;20237;-67
2022/04/05 02:41:05;;;;;;;3.27;2.07;;;;;;;8.61;66.73;99866.44;5100207;28;20236;-67
2022/04/05 02:43:33;;;;;;;3.70;2.27;;;;;;;8.75;65.96;99870.34;5106004;28;20524;-68
2022/04/05 02:46:03;;;;;;;4.60;2.40;;;;;;;8.26;68.10;99872.47;5100207;28;20204;-67
2022/04/05 02:48:31;;;;;;;3.70;2.53;;;;;;;8.15;68.92;99856.81;5099759;28;20303;-68
2022/04/05 02:50:59;;;;;;;3.57;2.30;;;;;;;8.21;68.61;99853.56;5101177;28;20205;-68
2022/04/05 02:53:26;;;;;;;5.70;2.77;;;;;;;8.36;68.41;99840.72;5102711;28;20312;-67
2022/04/05 02:55:54;;;;;;;3.97;2.20;;;;;;;8.15;69.21;99863.91;5102949;28;20209;-68
2022/04/05 02:58:25;;;;;;;3.47;2.03;;;;;;;8.30;68.25;99857.97;5104263;28;20301;-68
2022/04/05 03:00:53;;;;;;;6.47;2.43;;;;;;;8.29;68.81;99855.47;5103295;28;20724;-68
2022/04/05 03:03:25;;;;;;;4.03;2.60;;;;;;;8.41;68.32;99842.91;5105599;28;20206;-68
2022/04/05 03:05:53;;;;;;;3.90;2.00;;;;;;;8.47;67.73;99858.16;5102565;27;21751;-68
2022/04/05 03:08:22;;;;;;;3.27;2.20;;;;;;;8.21;69.13;99855.38;5105927;28;20208;-66
2022/04/05 03:10:51;;;;;;;4.10;2.17;;;;;;;8.04;70.02;99856.16;5104561;28;20206;-67
2022/04/05 03:13:20;;;;;;;4.27;2.33;;;;;;;8.03;70.39;99865.06;5106239;27;20316;-67
2022/04/05 03:15:48;;;;;;;4.10;2.47;;;;;;;8.33;68.89;99859.53;5104930;27;20205;-67
2022/04/05 03:18:16;;;;;;;3.80;2.20;;;;;;;8.29;69.31;99866.88;5104317;27;20239;-66
2022/04/05 03:20:45;;;;;;;4.50;1.97;;;;;;;8.41;68.82;99875.44;5105190;27;20650;-67
2022/04/05 03:23:13;;;;;;;3.17;2.00;;;;;;;8.38;68.91;99865.16;5103272;27;20209;-67
2022/04/05 03:25:42;;;;;;;3.70;2.57;;;;;;;8.27;69.47;99870.63;5108052;27;20230;-67
2022/04/05 03:28:09;;;;;;;5.50;2.33;;;;;;;8.39;69.25;99877.41;5104144;27;20208;-67
2022/04/05 03:30:37;;;;;;;3.50;2.00;;;;;;;8.28;69.49;99873.13;5100814;27;20304;-67
2022/04/05 03:33:06;;;;;;;5.17;2.50;;;;;;;8.19;69.96;99865.25;5105494;27;20667;-66
2022/04/05 03:35:34;;;;;;;3.30;2.10;;;;;;;8.34;69.42;99863.81;5103825;27;21982;-67
2022/04/05 03:38:03;;;;;;;3.90;2.00;;;;;;;8.23;69.92;99867.47;5103593;27;20245;-66
2022/04/05 03:40:31;;;;;;;3.43;2.03;;;;;;;8.41;69.16;99875.44;5107170;27;20709;-67
2022/04/05 03:42:59;;;;;;;3.27;2.23;;;;;;;8.23;70.14;99866.63;5105567;28;20239;-67
2022/04/05 03:45:27;;;;;;;4.30;2.27;;;;;;;8.25;70.37;99870.78;5105088;28;20677;-66
2022/04/05 03:47:57;;;;;;;4.43;2.30;;;;;;;8.04;70.91;99870.19;5104399;27;20320;-67
2022/04/05 03:50:27;;;;;;;3.90;2.30;;;;;;;8.09;70.84;99864.50;5104742;27;20213;-67
2022/04/05 03:52:59;;;;;;;3.70;2.20;;;;;;;8.29;70.33;99855.47;5102830;27;20229;-68
2022/04/05 03:55:28;;;;;;;2.90;2.00;;;;;;;8.28;70.43;99865.19;5102667;27;20228;-68
2022/04/05 03:57:56;;;;;;;5.37;2.40;;;;;;;8.28;70.46;99856.44;5106483;27;20214;-68
2022/04/05 04:00:24;;;;;;;3.77;1.77;;;;;;;8.29;70.48;99855.47;5100856;27;20301;-68
2022/04/05 04:02:51;;;;;;;3.87;2.17;;;;;;;8.41;69.95;99859.59;5106685;27;20210;-66
2022/04/05 04:05:20;;;;;;;4.13;2.13;;;;;;;8.25;70.72;99856.75;5100230;28;20240;-66
2022/04/05 04:07:48;;;;;;;3.67;1.80;;;;;;;8.28;70.92;99856.44;5103875;27;20208;-67
2022/04/05 04:10:18;;;;;;;3.30;2.03;;;;;;;8.26;71.21;99846.03;5101282;27;20217;-68
2022/04/05 04:12:54;;;;;;;4.00;1.90;;;;;;;8.02;71.74;99852.81;5104389;27;20710;-67
2022/04/05 04:15:22;;;;;;;4.10;2.20;;;;;;;8.22;71.49;99849.13;5105158;27;20236;-67
2022/04/05 04:17:55;;;;;;;2.30;1.60;;;;;;;8.25;71.10;99854.13;5100404;27;20215;-67
2022/04/05 04:20:25;;;;;;;2.97;1.97;;;;;;;8.04;71.71;99857.00;5104503;27;20212;-67
2022/04/05 04:22:53;;;;;;;3.83;1.83;;;;;;;8.13;71.23;99850.00;5102436;27;20576;-67
2022/04/05 04:25:20;;;;;;;2.10;1.40;;;;;;;8.17;71.56;99851.38;5104328;27;20369;-67
2022/04/05 04:27:48;;;;;;;2.90;1.60;;;;;;;8.20;71.13;99851.91;5105741;27;20214;-68
2022/04/05 04:30:27;;;;;;;2.70;1.80;;;;;;;8.19;71.21;99844.94;5104168;27;20216;-67
2022/04/05 04:32:55;;;;;;;3.43;1.70;;;;;;;8.19;71.62;99836.19;5101723;27;20359;-67
2022/04/05 04:35:23;;;;;;;2.23;1.47;;;;;;;8.18;71.82;99848.56;5103544;28;20582;-67
2022/04/05 04:37:51;;;;;;;3.03;1.63;;;;;;;8.28;71.01;99835.31;5106498;27;20297;-67
2022/04/05 04:40:19;;;;;;;3.50;1.93;;;;;;;8.34;71.17;99833.94;5105530;27;20610;-68
2022/04/05 04:42:48;;;;;;;4.50;1.77;;;;;;;8.37;70.58;99826.53;5107624;27;20214;-68
2022/04/05 04:45:19;;;;;;;2.93;1.70;;;;;;;8.45;70.57;99834.53;5104476;27;20217;-68
2022/04/05 04:47:51;;;;;;;4.87;2.17;;;;;;;8.46;70.53;99840.66;5103163;27;20211;-68
2022/04/05 04:50:19;;;;;;;2.27;1.60;;;;;;;8.22;71.48;99854.41;5106248;27;20228;-68
2022/04/05 04:52:47;;;;;;;2.73;1.67;;;;;;;8.32;71.22;99843.81;5103231;27;20204;-68
2022/04/05 04:55:15;;;;;;;2.50;1.70;;;;;;;8.49;70.77;99841.19;5099370;27;20219;-67
2022/04/05 04:57:42;;;;;;;3.03;2.10;;;;;;;8.36;71.51;99845.16;5102238;27;20254;-67
2022/04/05 05:00:11;;;;;;;4.60;2.00;;;;;;;8.43;71.02;99849.72;5102616;27;20295;-68
2022/04/05 05:02:48;;;;;;;3.93;1.80;;;;;;;8.36;72.03;99846.00;5105297;27;20213;-67
2022/04/05 05:05:17;;;;;;;3.30;1.93;;;;;;;8.22;72.34;99854.41;5102630;27;20247;-68
2022/04/05 05:07:53;;;;;;;4.07;1.60;;;;;;;8.55;71.21;99851.16;5097328;28;20217;-68
2022/04/05 05:10:22;;;;;;;4.60;1.80;;;;;;;8.37;72.25;99847.66;5101627;27;21335;-68
2022/04/05 05:12:50;;;;;;;2.63;1.70;;;;;;;8.43;72.15;99848.88;5104418;27;20318;-67
2022/04/05 05:15:21;;;;;;;4.33;1.73;;;;;;;8.39;72.63;99856.28;5101345;27;20299;-66
2022/04/05 05:17:50;;;;;;;2.70;1.70;;;;;;;8.49;72.44;99857.03;5100412;28;20209;-68
2022/04/05 05:20:18;;;;;;;2.77;1.77;;;;;;;8.39;72.49;99848.34;5104597;27;20206;-68
2022/04/05 05:22:46;;;;;;;2.83;1.67;;;;;;;8.47;72.39;99859.00;5104505;28;20205;-67
2022/04/05 05:25:17;;;;;;;2.83;1.93;;;;;;;8.50;72.26;99837.56;5102702;27;20246;-67
2022/04/05 05:27:44;;;;;;;3.47;1.87;;;;;;;8.33;73.01;99841.03;5104053;27;20201;-67
2022/04/05 05:30:12;;;;;;;5.70;2.83;;;;;;;7.99;75.02;99843.41;5100513;28;20651;-67
2022/04/05 05:35:26;;;;;;;3.33;1.87;;;;;;;8.12;74.62;99856.25;5107442;27;20214;-69
2022/04/05 05:37:56;;;;;;;3.23;1.80;;;;;;;8.45;73.09;99866.22;5113304;27;20585;-68
2022/04/05 05:40:24;;;;;;;2.90;1.90;;;;;;;8.17;74.43;99861.94;5106579;27;20277;-67
2022/04/05 05:42:55;;;;;;;3.50;1.67;;;;;;;8.26;74.18;99863.72;5103277;27;20293;-68
2022/04/05 05:45:23;;;;;;;3.10;2.05;;;;;;;8.23;74.57;99856.91;5108721;27;20478;-67
2022/04/05 05:47:51;;;;;;;3.00;1.70;;;;;;;8.32;74.26;99859.66;5111340;27;20237;-66
2022/04/05 05:50:19;;;;;;;3.10;1.70;;;;;;;8.45;73.64;99854.84;5108398;27;20209;-66
2022/04/05 05:52:49;;;;;;;2.60;1.67;;;;;;;8.73;72.19;99868.81;5109433;27;20241;-66
2022/04/05 05:55:19;;;;;;;2.50;1.70;;;;;;;8.48;73.21;99870.41;5107824;27;20252;-67
2022/04/05 05:57:47;;;;;;;3.53;1.93;;;;;;;8.64;72.55;99860.81;5100082;27;20212;-67
2022/04/05 06:00:20;;;;;;;2.40;1.63;;;;;;;8.56;72.77;99873.94;5100458;27;20208;-66
2022/04/05 06:02:49;;;;;;;2.37;1.40;;;;;;;8.66;72.15;99873.88;5099485;28;20216;-68
2022/04/05 06:05:17;;;;;;;4.43;1.80;;;;;;;8.63;72.54;99869.72;5101014;27;20206;-65
2022/04/05 06:07:45;;;;;;;2.63;1.60;;;;;;;8.73;72.04;99879.41;5103225;27;20734;-66
2022/04/05 06:10:15;;;;;;;4.00;1.80;;;;;;;8.64;72.29;99881.97;5100908;27;20296;-66
2022/04/05 06:12:45;;;;;;;3.13;1.60;;;;;;;8.33;73.79;99893.03;5102330;28;20202;-66
2022/04/05 06:15:14;;;;;;;2.20;1.30;;;;;;;8.56;72.84;99920.69;5102091;27;20668;-66
2022/04/05 06:17:45;;;;;;;1.93;1.37;;;;;;;8.70;72.06;99900.88;5105689;27;20255;-66
2022/04/05 06:20:14;;;;;;;3.00;1.53;;;;;;;8.58;72.58;99903.72;5103784;27;20299;-66
2022/04/05 06:22:43;;;;;;;4.47;1.60;;;;;;;8.77;71.93;99912.50;5104129;27;20217;-66
2022/04/05 06:25:16;;;;;;;2.50;1.63;;;;;;;8.78;71.91;99911.53;5103720;28;20194;-66
2022/04/05 06:27:46;;;;;;;2.50;1.70;;;;;;;8.84;71.77;99919.69;5101058;28;20209;-66
2022/04/05 06:30:15;;;;;;;2.60;1.67;;;;;;;8.62;72.57;99914.81;5108431;27;20550;-66
2022/04/05 06:32:43;;;;;;;3.10;2.03;;;;;;;8.76;72.26;99902.91;5107147;28;20213;-66
2022/04/05 06:35:24;;;;;;;3.33;2.07;;;;;;;8.76;72.16;99913.47;5116444;27;20305;-66
2022/04/05 06:37:52;;;;;;;5.17;1.67;;;;;;;8.32;74.06;99915.97;5100961;28;20248;-65
2022/04/05 06:40:19;;;;;;;2.57;1.90;;;;;;;8.61;73.12;99921.09;5121348;28;20210;-66
2022/04/05 06:42:53;;;;;;;3.73;2.30;;;;;;;8.58;73.34;99931.94;5126706;28;20632;-64
2022/04/05 06:45:22;;;;;;;2.80;1.83;;;;;;;8.60;72.94;99932.63;5119695;27;20209;-64
2022/04/05 06:47:50;;;;;;;3.67;2.10;;;;;;;8.39;73.57;99927.59;5114680;28;20209;-64
2022/04/05 06:50:20;;;;;;;3.00;2.00;;;;;;;8.63;72.95;99932.31;5126241;28;20226;-66
2022/04/05 06:52:48;;;;;;;2.80;1.97;;;;;;;8.62;72.27;99920.91;5122039;28;20213;-64
2022/04/05 06:55:16;;;;;;;3.87;2.30;;;;;;;8.67;72.20;99933.69;5116673;28;20240;-66
2022/04/05 06:57:43;;;;;;;3.20;2.07;;;;;;;8.54;72.21;99926.13;5121650;28;20208;-64
2022/04/05 07:00:14;;;;;;;3.03;1.70;;;;;;;8.68;71.41;99930.09;5108354;28;20423;-66
2022/04/05 07:02:42;;;;;;;2.63;1.90;;;;;;;8.30;73.01;99931.09;5114168;28;20240;-66
2022/04/05 07:05:12;;;;;;;3.53;2.23;;;;;;;8.38;73.26;99928.56;5112557;27;20295;-66
2022/04/05 07:07:42;;;;;;;3.67;2.10;;;;;;;8.62;72.27;99925.38;5128107;28;20209;-66
2022/04/05 07:10:12;;;;;;;3.20;1.90;;;;;;;8.56;72.55;99929.44;5122711;28;20688;-66
2022/04/05 07:12:40;;;;;;;3.83;2.37;;;;;;;8.72;71.45;99943.81;5123737;27;20300;-66
2022/04/05 07:15:10;;;;;;;3.00;1.90;;;;;;;8.46;72.76;99944.53;5123975;28;20690;-67
2022/04/05 07:17:40;;;;;;;3.00;2.00;;;;;;;8.60;72.82;99937.94;5121479;28;20208;-67
2022/04/05 07:20:29;;;;;;;3.30;2.40;;;;;;;8.82;72.20;99939.31;5117827;28;20209;-66
2022/04/05 07:22:56;;;;;;;3.70;2.60;;;;;;;8.85;72.02;99928.44;5111349;28;20221;-66
2022/04/05 07:25:24;;;;;;;3.70;2.47;;;;;;;8.81;72.47;99932.34;5118103;28;20284;-66
2022/04/05 07:27:52;;;;;;;3.67;2.57;;;;;;;8.88;72.66;99938.72;5112914;28;20293;-66
2022/04/05 07:30:21;;;;;;;3.40;1.97;;;;;;;8.68;73.88;99938.84;5114462;28;20204;-67
2022/04/05 07:32:50;;;;;;;2.90;2.30;;;;;;;8.91;73.34;99930.47;5115194;28;20206;-68
2022/04/05 07:35:18;;;;;;;3.33;2.30;;;;;;;8.85;73.63;99925.78;5104851;28;20710;-68
2022/04/05 07:37:46;;;;;;;3.50;2.43;;;;;;;8.83;73.85;99940.97;5108861;28;20245;-68
2022/04/05 07:40:15;;;;;;;3.97;2.20;;;;;;;8.78;73.85;99932.66;5102108;28;20536;-67
2022/04/05 07:42:44;;;;;;;4.10;2.30;;;;;;;8.93;73.37;99934.63;5100718;28;20274;-67
2022/04/05 07:45:14;;;;;;;3.73;2.30;;;;;;;8.95;73.82;99929.19;5105139;28;20588;-67
2022/04/05 07:47:42;;;;;;;3.37;2.37;;;;;;;8.83;74.37;99922.47;5107591;27;20206;-67
2022/04/05 07:50:11;;;;;;;4.80;2.60;;;;;;;8.86;75.56;99930.94;5104676;27;20301;-67
2022/04/05 07:52:39;;;;;;;3.57;2.47;;;;;;;8.66;76.51;99921.47;5108183;27;20576;-67
2022/04/05 07:55:08;;;;;;;2.80;2.00;;;;;;;8.91;75.10;99919.91;5109874;27;20345;-67
2022/04/05 07:57:40;;;;;;;3.13;2.20;;;;;;;9.15;74.25;99925.41;5101340;27;20263;-68
2022/04/05 08:00:09;;;;;;;4.00;2.27;;;;;;;8.91;74.88;99914.59;5108027;27;20249;-67
2022/04/05 08:02:37;;;;;;;4.33;2.90;;;;;;;9.19;74.08;99923.28;5108544;28;20451;-67
2022/04/05 08:05:15;;;;;;;4.27;2.60;;;;;;;9.05;75.24;99922.03;5105641;28;20234;-69
2022/04/05 08:07:46;;;;;;;3.97;2.57;;;;;;;9.25;73.78;99922.69;5103730;27;20210;-69
2022/04/05 08:10:15;;;;;;;3.53;2.23;;;;;;;9.12;74.81;99925.72;5107239;27;20297;-68
2022/04/05 08:12:46;;;;;;;4.23;2.40;;;;;;;9.26;73.56;99930.47;5105979;27;20639;-68
2022/04/05 08:15:17;;;;;;;3.63;2.33;;;;;;;9.48;73.08;99918.56;5108461;27;20224;-68
2022/04/05 08:17:45;;;;;;;4.00;2.27;;;;;;;9.24;73.49;99935.06;5109426;27;20712;-68
2022/04/05 08:20:13;;;;;;;4.63;2.30;;;;;;;9.11;74.47;99916.13;5107293;27;20316;-68
2022/04/05 08:22:44;;;;;;;3.43;2.30;;;;;;;9.19;73.86;99924.13;5107036;27;20217;-68
2022/04/05 08:25:15;;;;;;;4.00;2.30;;;;;;;9.18;73.55;99922.47;5108395;27;20620;-68
2022/04/05 08:27:43;;;;;;;5.83;2.53;;;;;;;9.10;74.16;99919.75;5108944;27;20495;-69
2022/04/05 08:30:15;;;;;;;3.63;2.40;;;;;;;8.96;74.73;99912.34;5109295;27;20206;-67
2022/04/05 08:32:44;;;;;;;3.40;2.20;;;;;;;9.09;73.80;99911.97;5101295;27;20702;-67
2022/04/05 08:35:15;;;;;;;2.93;2.00;;;;;;;9.20;74.14;99920.50;5104899;27;20234;-70
2022/04/05 08:37:45;;;;;;;3.17;2.13;;;;;;;9.19;74.02;99928.59;5110224;27;20329;-67
2022/04/05 08:40:14;;;;;;;3.53;2.20;;;;;;;9.09;74.50;99923.38;5123061;27;20296;-66
2022/04/05 08:42:44;;;;;;;3.90;2.37;;;;;;;9.05;73.79;99917.56;5118439;27;20564;-67
2022/04/05 08:45:14;;;;;;;3.07;1.80;;;;;;;9.15;73.79;99917.47;5114310;27;20211;-66
2022/04/05 08:47:46;;;;;;;2.73;1.93;;;;;;;9.03;74.13;99918.69;5110093;27;20209;-68
2022/04/05 08:50:17;;;;;;;3.73;2.40;;;;;;;9.06;74.65;99936.88;5107357;27;20190;-68
2022/04/05 08:52:47;;;;;;;2.70;1.80;;;;;;;9.26;73.47;99924.34;5116123;27;20846;-66
2022/04/05 08:55:16;;;;;;;2.63;2.03;;;;;;;9.23;73.80;99929.97;5102476;27;20249;-66
2022/04/05 08:57:44;;;;;;;3.53;2.17;;;;;;;9.22;73.61;99938.88;5109474;27;20207;-66
2022/04/05 09:00:15;;;;;;;3.77;2.00;;;;;;;9.25;73.71;99939.38;5120687;27;20290;-66
2022/04/05 09:02:54;;;;;;;3.47;1.93;;;;;;;9.38;73.07;99947.78;5112144;27;20208;-67
2022/04/05 09:05:30;;;;;;;3.07;1.97;;;;;;;9.38;73.42;99931.91;5116186;27;20567;-66
2022/04/05 09:08:14;;;;;;;4.20;2.20;;;;;;;9.27;74.12;99937.41;5116382;27;20701;-66
2022/04/05 09:10:42;;;;;;;3.13;2.20;;;;;;;9.52;72.49;99937.59;5109671;27;20421;-67
2022/04/05 09:13:11;;;;;;;2.43;1.80;;;;;;;9.53;72.12;99920.75;5109840;27;20317;-67
2022/04/05 09:15:41;;;;;;;2.93;2.07;;;;;;;9.75;71.56;99925.53;5107750;27;20604;-65
2022/04/05 09:18:13;;;;;;;2.80;1.83;;;;;;;9.53;73.23;99929.53;5114017;27;20326;-66
2022/04/05 09:20:49;;;;;;;2.70;1.90;;;;;;;9.59;72.92;99928.06;5121172;27;20290;-67
2022/04/05 09:23:26;;;;;;;2.50;1.73;;;;;;;9.75;72.19;99936.97;5113019;27;20271;-67
2022/04/05 09:25:57;;;;;;;3.77;1.53;;;;;;;9.79;72.13;99934.81;5112150;27;20289;-67
2022/04/05 09:28:29;;;;;;;3.33;2.00;;;;;;;9.69;72.75;99936.72;5115393;27;20203;-67
2022/04/05 09:30:59;;;;;;;2.53;1.77;;;;;;;9.81;71.79;99935.50;5109788;28;20208;-66
2022/04/05 09:33:29;;;;;;;3.33;2.00;;;;;;;9.94;71.24;99933.25;5108917;27;20216;-66
2022/04/05 09:36:12;;;;;;;2.37;1.50;;;;;;;9.68;72.70;99935.06;5109523;27;20259;-66
2022/04/05 09:38:44;;;;;;;2.43;1.53;;;;;;;9.71;72.57;99934.78;5111036;27;20336;-67
2022/04/05 09:41:21;;;;;;;4.33;2.47;;;;;;;9.94;71.64;99943.84;5106957;27;20224;-67
2022/04/05 09:44:07;;;;;;;6.57;3.27;;;;;;;9.91;71.81;99936.22;5106118;27;20203;-67
2022/04/05 09:46:36;;;;;;;2.87;1.80;;;;;;;9.95;72.13;99939.38;5106026;27;20222;-68
2022/04/05 09:49:09;;;;;;;3.60;2.27;;;;;;;9.80;72.38;99931.19;5113194;27;21207;-67
2022/04/05 09:51:43;;;;;;;2.37;1.50;;;;;;;9.76;72.16;99932.50;5104797;28;20644;-66
2022/04/05 09:54:22;;;;;;;2.63;1.87;;;;;;;10.00;71.83;99937.09;5111021;27;20208;-66
2022/04/05 09:56:50;;;;;;;2.80;1.80;;;;;;;9.96;72.14;99949.81;5105775;27;20220;-67
2022/04/05 09:59:21;;;;;;;2.77;1.87;;;;;;;10.03;71.72;99956.16;5104143;27;20644;-67
2022/04/05 10:01:52;;;;;;;4.47;2.00;;;;;;;10.13;71.59;99954.22;5107158;28;20285;-66
2022/04/05 10:04:20;;;;;;;3.20;2.10;;;;;;;10.20;71.09;99953.66;5107710;28;20198;-67
2022/04/05 10:06:53;;;;;;;4.30;2.00;;;;;;;10.10;71.78;99956.38;5118583;27;20232;-66
2022/04/05 10:09:23;;;;;;;3.40;1.97;;;;;;;10.06;72.06;99947.91;5109874;27;20297;-67
2022/04/05 10:11:51;;;;;;;4.40;2.20;;;;;;;10.07;71.68;99952.22;5099752;28;20217;-67
2022/04/05 10:14:20;;;;;;;3.70;1.97;;;;;;;9.90;72.88;99960.22;5105603;28;20622;-67
2022/04/05 10:16:54;;;;;;;5.20;2.23;;;;;;;10.07;71.88;99965.47;5102457;27;20234;-67
2022/04/05 10:19:26;;;;;;;3.57;2.20;;;;;;;10.26;71.85;99985.63;5105362;27;20291;-67
2022/04/05 10:21:56;;;;;;;5.27;2.10;;;;;;;10.34;71.36;99974.25;5105258;28;20249;-67
2022/04/05 10:24:28;;;;;;;2.70;1.90;;;;;;;10.44;70.87;99969.66;5116893;27;20197;-65
2022/04/05 10:26:55;;;;;;;4.00;2.40;;;;;;;10.41;70.83;99975.25;5110634;27;20224;-67
2022/04/05 10:29:27;;;;;;;3.90;2.20;;;;;;;10.42;71.27;99972.44;5114521;27;20208;-67
2022/04/05 10:32:02;;;;;;;5.63;2.77;;;;;;;10.63;70.48;99953.50;5104909;28;20227;-67
2022/04/05 10:34:37;;;;;;;3.30;2.43;;;;;;;10.51;71.11;99960.06;5104501;28;20215;-67
2022/04/05 10:37:10;;;;;;;3.00;2.00;;;;;;;10.57;70.83;99956.75;5108489;27;20239;-66
2022/04/05 10:39:39;;;;;;;3.63;2.33;;;;;;;10.40;71.50;99952.38;5105749;28;20372;-67
2022/04/05 10:42:22;;;;;;;4.00;2.30;;;;;;;10.59;71.20;99946.84;5105220;28;20262;-67
2022/04/05 10:45:03;;;;;;;;;;;;;;;;;;;;;
2022/04/05 10:47:31;;;;;;;3.60;2.43;;;;;;;10.77;69.88;99947.56;5096194;28;20210;-67
2022/04/05 10:50:20;;;;;;;3.90;2.60;;;;;;;10.68;70.09;99951.16;5104450;28;20214;-68
2022/04/05 10:52:48;;;;;;;3.97;2.60;;;;;;;10.52;70.85;99959.06;5110385;28;20640;-66
2022/04/05 10:55:20;;;;;;;3.60;2.80;;;;;;;10.66;70.69;99953.16;5107767;28;20229;-67
2022/04/05 10:57:49;;;;;;;4.00;2.53;;;;;;;10.69;70.78;99955.50;5104935;28;20571;-68
2022/04/05 11:00:24;;;;;;;4.00;2.57;;;;;;;10.79;69.89;99964.13;5109126;28;20253;-68
2022/04/05 11:03:06;;;;;;;5.07;2.97;;;;;;;10.59;70.75;99970.69;5107340;28;20219;-67
2022/04/05 11:05:41;;;;;;;5.67;2.43;;;;;;;10.71;70.33;99977.38;5105344;28;20206;-69
2022/04/05 11:08:15;;;;;;;4.77;3.10;;;;;;;10.58;70.89;99966.38;5112442;28;20203;-66
2022/04/05 11:10:52;;;;;;;6.50;3.20;;;;;;;10.44;71.23;99964.34;5114024;28;20296;-66
2022/04/05 11:13:23;;;;;;;3.83;2.73;;;;;;;10.55;70.86;99962.22;5111721;28;20224;-66
2022/04/05 11:15:56;;;;;;;6.07;2.97;;;;;;;10.49;71.48;99972.63;5106274;28;20292;-67
2022/04/05 11:18:26;;;;;;;3.60;2.80;;;;;;;10.58;71.23;99966.38;5114614;28;20267;-67
2022/04/05 11:20:55;;;;;;;4.30;2.63;;;;;;;10.75;70.36;99961.97;5122449;28;20305;-68
2022/04/05 11:23:44;;;;;;;3.97;2.80;;;;;;;10.72;70.79;99965.78;5119449;27;20650;-67
2022/04/05 11:26:29;;;;;;;4.43;2.83;;;;;;;10.87;69.82;99953.56;5112419;27;20206;-66
2022/04/05 11:28:58;;;;;;;3.77;2.70;;;;;;;10.58;71.26;99955.78;5113498;27;20198;-67
2022/04/05 11:31:37;;;;;;;4.07;2.73;;;;;;;10.63;71.15;99952.66;5112674;27;20202;-66
2022/04/05 11:34:37;;;;;;;4.77;3.07;;;;;;;10.73;70.90;99945.41;5112653;27;20217;-66
2022/04/05 11:37:07;;;;;;;5.17;3.00;;;;;;;10.79;70.87;99963.31;5101243;27;20231;-66
2022/04/05 11:39:39;;;;;;;4.43;3.13;;;;;;;10.84;70.48;99956.53;5111676;27;20238;-66
2022/04/05 11:42:09;;;;;;;4.13;2.90;;;;;;;10.59;71.87;99952.13;5112157;27;20338;-67
2022/04/05 11:44:37;;;;;;;13.33;11.97;;;;;;;10.55;72.31;99958.78;5107444;27;20208;-67
2022/04/05 11:47:07;;;;;;;4.70;3.63;;;;;;;10.71;71.15;99958.81;5109634;27;20725;-68
2022/04/05 11:49:43;;;;;;;5.50;3.37;;;;;;;10.64;71.56;99965.75;5105136;28;20584;-68
2022/04/05 11:52:11;;;;;;;5.07;3.70;;;;;;;10.55;72.70;99966.72;5106216;27;20199;-67
2022/04/05 11:57:22;;;;;;;5.40;3.70;;;;;;;10.34;73.64;99959.16;5104587;27;20222;-67
2022/04/05 11:59:50;;;;;;;5.87;3.87;;;;;;;10.56;72.87;99957.75;5108643;27;20214;-67
2022/04/05 12:02:28;;;;;;;4.87;3.50;;;;;;;10.45;73.11;99966.00;5105681;27;20212;-66